Thunder radar more information blitzortung!


Radar de pluja more information rain snow radar


Visita la nostra xarxa de llocs de meteo:

Template documentation
and downloads

And another site



No particular awareness of the weather is required.    There are no Weather-warnings

Pagina Historial Weather Underground text

Diari Resum May 12, 2016 Unitats:  Mètric    Imperial   Tant
« Previous Dia
SegĂźent Dia »
Diari Setmana Mensual Anual Personalitzada
  Maxima: Minima: Media:
Temperatura: -17.8 °C -12.9 °C -8.4 °C
Punt de rosada: -17.8 °C -14.6 °C -13.1 °C
Humitat: Humidity % 43 % 58 %
Wind Speed: 0 km/h 0 km/h 12.6 km/h
RĂ fegues de vent: 0 km/h - -
Vent:- - SW
Pression baro: 0 hPa 33992.1 hPa -
Precipitacions: 0 mm    
Historical Graphs
 
 
Dades de taula per May 12, 2016
Temps Temperatura Punt de rosada Pression baro Vent Wind Speed RĂ fegues de vent Humitat Rainfall Rate (Hourly)
-17.8 °C -17.8 °C 0 hPa Calm     Humidity % 0 mm
00:00 -12.2 °C -14.1 °C 34063.2 hPa NNE 2.6 km/h 5.1 km/h 80 % 0 mm
00:04 -10.3 °C -12.9 °C 34063.2 hPa WSW 6.3 km/h 6.3 km/h 74 % 0 mm
00:09 -10.4 °C -12.9 °C 34063.2 hPa WSW 6 km/h 6 km/h 74 % 0 mm
00:10 -12.3 °C -14.1 °C 34063.2 hPa NE 2.6 km/h 5.1 km/h 80 % 0 mm
00:20 -12.3 °C -14.2 °C 34063.2 hPa Calm   5.1 km/h 80 % 0 mm
00:30 -12.4 °C -14.3 °C 34063.2 hPa NNE 2.6 km/h 5.1 km/h 80 % 0 mm
00:40 -12.4 °C -14.3 °C 34063.2 hPa North 2.6 km/h 5.1 km/h 80 % 0 mm
00:50 -12.5 °C -14.3 °C 34063.2 hPa North 2.6 km/h 5.1 km/h 80 % 0 mm
01:00 -12.7 °C -14.5 °C 34063.2 hPa Calm   5.1 km/h 80 % 0 mm
01:20 -12.7 °C -14.4 °C 34063.2 hPa Calm   5.1 km/h 81 % 0 mm
01:30 -12.8 °C -14.6 °C 34063.2 hPa WSW 2.6 km/h 5.1 km/h 81 % 0 mm
01:40 -12.8 °C -14.6 °C 34063.2 hPa SW 2.6 km/h 5.1 km/h 81 % 0 mm
01:50 -12.8 °C -14.4 °C 34063.2 hPa Calm     82 % 0 mm
02:00 -12.9 °C -14.5 °C 34063.2 hPa SW 5.1 km/h 7.7 km/h 82 % 0 mm
02:10 -12.9 °C -14.4 °C 34063.2 hPa SW 2.6 km/h 5.1 km/h 83 % 0 mm
02:20 -12.8 °C -14.3 °C 34063.2 hPa SW 2.6 km/h 5.1 km/h 83 % 0 mm
02:30 -12.7 °C -14.2 °C 34063.2 hPa SW 2.6 km/h 5.1 km/h 83 % 0 mm
02:40 -12.6 °C -14.1 °C 34029.3 hPa SW 5.1 km/h 5.1 km/h 83 % 0 mm
02:50 -12.4 °C -13.9 °C 34029.3 hPa Calm   7.7 km/h 84 % 0 mm
03:00 -12.2 °C -13.7 °C 34063.2 hPa SW 2.6 km/h 2.6 km/h 84 % 0 mm
03:10 -11.8 °C -13.3 °C 34063.2 hPa SW 2.6 km/h 5.1 km/h 84 % 0 mm
03:20 -11.6 °C -13.2 °C 34063.2 hPa Calm   5.1 km/h 83 % 0 mm
03:30 -11.3 °C -12.9 °C 34063.2 hPa Calm   2.6 km/h 82 % 0 mm
03:40 -11.2 °C -12.9 °C 34063.2 hPa SSW 2.6 km/h 7.7 km/h 81 % 0 mm
03:50 -10.7 °C -12.7 °C 34063.2 hPa South 2.6 km/h 5.1 km/h 79 % 0 mm
04:00 -10.3 °C -12.4 °C 34063.2 hPa ESE 2.6 km/h 5.1 km/h 78 % 0 mm
04:10 -10.2 °C -12.3 °C 34063.2 hPa Calm   5.1 km/h 78 % 0 mm
04:20 -9.8 °C -12.1 °C 34063.2 hPa South 2.6 km/h 2.6 km/h 77 % 0 mm
04:40 -9.6 °C -11.9 °C 34063.2 hPa SSW 5.1 km/h 10.3 km/h 76 % 0 mm
05:00 -9.1 °C -11.8 °C 34063.2 hPa ESE 2.6 km/h 5.1 km/h 73 % 0 mm
05:20 -8.8 °C -11.8 °C 34063.2 hPa NE 2.6 km/h 7.7 km/h 70 % 0 mm
05:30 -8.3 °C -11.6 °C 34063.2 hPa ENE 2.6 km/h 7.7 km/h 68 % 0 mm
05:40 -8.1 °C -11.4 °C 34063.2 hPa East 7.7 km/h 10.3 km/h 68 % 0 mm
05:50 -7.8 °C -11.3 °C 34063.2 hPa East 7.7 km/h 10.3 km/h 67 % 0 mm
06:00 -7.7 °C -11.3 °C 34063.2 hPa ESE 7.7 km/h 10.3 km/h 66 % 0 mm
06:10 -7.2 °C -10.9 °C 34063.2 hPa East 7.7 km/h 10.3 km/h 65 % 0 mm
11:19 -6.6 °C -11.3 °C 34063.2 hPa SW 9 km/h 9 km/h 58 % 0 mm
11:24 -6.3 °C -11.6 °C 34029.3 hPa WSW 11.9 km/h 11.9 km/h 55 % 0 mm
11:34 -6.9 °C -12.4 °C 34029.3 hPa WSW 15 km/h 15 km/h 53 % 0 mm
11:39 -6.8 °C -12.3 °C 34063.2 hPa WSW 9 km/h 9 km/h 53 % 0 mm
11:44 -6.7 °C -12.4 °C 34063.2 hPa SSW 26.9 km/h 26.9 km/h 51 % 0 mm
11:49 -6.4 °C -12.4 °C 34063.2 hPa West 15 km/h 15 km/h 50 % 0 mm
11:54 -6.3 °C -12.3 °C 34063.2 hPa West 20.9 km/h 20.9 km/h 50 % 0 mm
11:59 -6.5 °C -12.7 °C 34063.2 hPa WSW 20.9 km/h 20.9 km/h 49 % 0 mm
12:04 -6.4 °C -12.7 °C 34063.2 hPa WNW 17.9 km/h 17.9 km/h 48 % 0 mm
12:09 -6.3 °C -12.7 °C 34063.2 hPa WSW 23.8 km/h 23.8 km/h 48 % 0 mm
12:14 -6.3 °C -12.4 °C 34063.2 hPa West 16.1 km/h 16.1 km/h 49 % 0 mm
12:19 -6.3 °C -12.6 °C 34063.2 hPa WNW 11.9 km/h 11.9 km/h 48 % 0 mm
12:24 -6.1 °C -12.6 °C 34063.2 hPa WSW 15 km/h 15 km/h 47 % 0 mm
12:29 -6.1 °C -12.8 °C 34063.2 hPa WSW 35.7 km/h 35.7 km/h 46 % 0 mm
12:39 -6.2 °C -12.9 °C 34029.3 hPa SSE 29.8 km/h 29.8 km/h 46 % 0 mm
12:49 -6.1 °C -13 °C 34029.3 hPa NNE 17.9 km/h 17.9 km/h 45 % 0 mm
12:54 -5.7 °C -12.4 °C 34063.2 hPa WSW 20.9 km/h 20.9 km/h 46 % 0 mm
12:59 -5.9 °C -12.8 °C 34063.2 hPa South 15 km/h 15 km/h 45 % 0 mm
13:04 -5.7 °C -12.6 °C 34063.2 hPa West 23.8 km/h 23.8 km/h 45 % 0 mm
13:09 -5.7 °C -12.7 °C 34063.2 hPa WSW 20.3 km/h 20.3 km/h 45 % 0 mm
13:14 -5.8 °C -12.7 °C 34063.2 hPa WSW 9.3 km/h 9.3 km/h 45 % 0 mm
13:19 -6.1 °C -13.1 °C 34063.2 hPa SW 15 km/h 15 km/h 44 % 0 mm
13:24 -5.9 °C -12.8 °C 34029.3 hPa West 9 km/h 9 km/h 45 % 0 mm
13:29 -5.9 °C -13 °C 34029.3 hPa WSW 17.9 km/h 17.9 km/h 44 % 0 mm
13:34 -6.2 °C -13.1 °C 34029.3 hPa West 15 km/h 15 km/h 45 % 0 mm
13:39 -6.2 °C -13.1 °C 34063.2 hPa West 11.9 km/h 11.9 km/h 45 % 0 mm
13:44 -6.2 °C -12.9 °C 34063.2 hPa SSW 19.6 km/h 19.6 km/h 46 % 0 mm
13:49 -6.2 °C -13.1 °C 34063.2 hPa NW 19.2 km/h 19.2 km/h 45 % 0 mm
13:54 -6.3 °C -12.9 °C 34063.2 hPa NW 11.9 km/h 11.9 km/h 46 % 0 mm
14:04 -6.6 °C -13.2 °C 34063.2 hPa North 15 km/h 15 km/h 46 % 0 mm
14:09 -6.6 °C -13.2 °C 34063.2 hPa WSW 15 km/h 15 km/h 46 % 0 mm
14:14 -6.6 °C -13.2 °C 34063.2 hPa WSW 15 km/h 15 km/h 46 % 0 mm
14:19 -6.6 °C -13.4 °C 34063.2 hPa WSW 20.9 km/h 20.9 km/h 45 % 0 mm
14:24 -6.7 °C -13.3 °C 34063.2 hPa WSW 9.8 km/h 10.3 km/h 46 % 0 mm
14:29 -6.7 °C -13.4 °C 34063.2 hPa WSW 11.9 km/h 11.9 km/h 46 % 0 mm
14:34 -6.7 °C -13.3 °C 34063.2 hPa West 11.9 km/h 11.9 km/h 46 % 0 mm
14:39 -6.6 °C -13.1 °C 34063.2 hPa SW 9 km/h 9 km/h 47 % 0 mm
14:44 -6.6 °C -13.1 °C 34063.2 hPa SSW 15 km/h 15 km/h 47 % 0 mm
14:54 -6.7 °C -13.3 °C 34063.2 hPa West 15 km/h 15 km/h 46 % 0 mm
14:59 -6.6 °C -13.1 °C 34063.2 hPa NNE 12.7 km/h 12.7 km/h 47 % 0 mm
15:04 -6.6 °C -13.1 °C 34063.2 hPa WSW 6.3 km/h 6.3 km/h 47 % 0 mm
15:09 -6.5 °C -13 °C 34063.2 hPa NW 11.9 km/h 11.9 km/h 47 % 0 mm
15:14 -6.5 °C -13 °C 34063.2 hPa ENE 17.9 km/h 17.9 km/h 47 % 0 mm
15:24 -6.4 °C -12.9 °C 34063.2 hPa NNW 9 km/h 9 km/h 47 % 0 mm
15:29 -6.3 °C -12.8 °C 34063.2 hPa WSW 9.3 km/h 10.3 km/h 47 % 0 mm
15:34 -5.8 °C -12.4 °C 34063.2 hPa West 11.9 km/h 11.9 km/h 47 % 0 mm
15:39 -5.9 °C -12.6 °C 34029.3 hPa ENE 17.9 km/h 17.9 km/h 46 % 0 mm
15:44 -6.1 °C -12.9 °C 34029.3 hPa West 20.9 km/h 20.9 km/h 45 % 0 mm
15:49 -6.2 °C -12.9 °C 34029.3 hPa West 15 km/h 15 km/h 46 % 0 mm
15:54 -6.3 °C -12.9 °C 34063.2 hPa WSW 20.9 km/h 20.9 km/h 46 % 0 mm
15:59 -6.2 °C -12.7 °C 34063.2 hPa WSW 17.9 km/h 17.9 km/h 47 % 0 mm
16:04 -6.4 °C -12.9 °C 34063.2 hPa WSW 16.1 km/h 16.1 km/h 47 % 0 mm
16:09 -6.6 °C -12.9 °C 34063.2 hPa West 20.9 km/h 20.9 km/h 48 % 0 mm
16:14 -6.7 °C -12.9 °C 34063.2 hPa SW 17.9 km/h 17.9 km/h 48 % 0 mm
16:19 -6.6 °C -12.7 °C 34063.2 hPa SSW 11.9 km/h 11.9 km/h 49 % 0 mm
16:24 -6.7 °C -12.7 °C 34063.2 hPa SW 17.9 km/h 17.9 km/h 50 % 0 mm
16:29 -6.9 °C -12.7 °C 34063.2 hPa WSW 9 km/h 9 km/h 51 % 0 mm
16:34 -6.4 °C -12.4 °C 34063.2 hPa SSW 11.9 km/h 11.9 km/h 50 % 0 mm
16:39 -6.1 °C -12.3 °C 34029.3 hPa WSW 9 km/h   49 % 0 mm
16:44 -5.9 °C -12.1 °C 34029.3 hPa WSW 9 km/h 9 km/h 49 % 0 mm
16:49 -5.6 °C -12.2 °C 34029.3 hPa SSW 15 km/h 15 km/h 47 % 0 mm
16:54 -5.6 °C -12.6 °C 34029.3 hPa WSW 20.9 km/h 20.9 km/h 45 % 0 mm
16:59 -5.6 °C -12.5 °C 34029.3 hPa WNW 15 km/h 15 km/h 45 % 0 mm
17:04 -5.2 °C -12.2 °C 34029.3 hPa SSW 22 km/h 22 km/h 45 % 0 mm
17:09 -5.7 °C -12.9 °C 34029.3 hPa SW 17.9 km/h 17.9 km/h 43 % 0 mm
17:14 -6.1 °C -13.3 °C 34029.3 hPa SW 26.9 km/h 26.9 km/h 43 % 0 mm
17:19 -6.2 °C -13.1 °C 34029.3 hPa SW 15 km/h 15 km/h 45 % 0 mm
17:24 -6.3 °C -12.9 °C 33992.1 hPa West 15 km/h 15 km/h 46 % 0 mm
17:29 -6.4 °C -12.9 °C 33992.1 hPa WSW 11.9 km/h 11.9 km/h 47 % 0 mm
17:34 -6.6 °C -13.1 °C 33992.1 hPa WSW 6 km/h 6 km/h 47 % 0 mm
17:39 -6.7 °C -12.9 °C 34029.3 hPa SW 6 km/h 6 km/h 48 % 0 mm
17:44 -6.5 °C -12.8 °C 34029.3 hPa West 6 km/h 6 km/h 48 % 0 mm
17:49 -6.5 °C -12.8 °C 34029.3 hPa WSW 11.9 km/h 11.9 km/h 48 % 0 mm
17:54 -6.4 °C -13.1 °C 33992.1 hPa WSW 15.6 km/h 15.6 km/h 46 % 0 mm
18:04 -6.6 °C -13.2 °C 33992.1 hPa SW 26.9 km/h 26.9 km/h 46 % 0 mm
18:09 -6.7 °C -13.5 °C 33992.1 hPa SW 29.8 km/h 29.8 km/h 45 % 0 mm
18:14 -6.8 °C -13.4 °C 33992.1 hPa WSW 32.8 km/h 32.8 km/h 46 % 0 mm
18:19 -6.9 °C -13.5 °C 33992.1 hPa West 27.7 km/h 27.7 km/h 46 % 0 mm
18:24 -7.1 °C -13.7 °C 34029.3 hPa SW 20.9 km/h 20.9 km/h 46 % 0 mm
18:29 -7.2 °C -13.7 °C 34029.3 hPa SW 23.8 km/h 23.8 km/h 47 % 0 mm
18:34 -7.3 °C -13.4 °C 34029.3 hPa West 23.8 km/h 23.8 km/h 49 % 0 mm
18:39 -7.3 °C -13.4 °C 34029.3 hPa SW 38.1 km/h 38.1 km/h 49 % 0 mm
18:44 -7.2 °C -13.3 °C 34029.3 hPa SW 17.9 km/h 17.9 km/h 49 % 0 mm
18:49 -7.1 °C -13.2 °C 34029.3 hPa South 17.9 km/h 17.9 km/h 49 % 0 mm
18:55 -7.1 °C -13 °C 34029.3 hPa SW 32.8 km/h 32.8 km/h 50 % 0 mm
19:00 -7.1 °C -12.7 °C 34029.3 hPa WSW 28.2 km/h 28.2 km/h 52 % 0 mm
19:05 -7.3 °C -12.7 °C 34029.3 hPa SSW 32.8 km/h 32.8 km/h 53 % 0 mm
19:10 -7.4 °C -12.9 °C 34029.3 hPa South 32.8 km/h 32.8 km/h 53 % 0 mm
19:15 -7.6 °C -12.7 °C 34029.3 hPa SSW 33.6 km/h 33.6 km/h 55 % 0 mm
19:20 -7.7 °C -12.6 °C 34029.3 hPa SW 26.9 km/h 26.9 km/h 57 % 0 mm
19:25 -7.8 °C -12.7 °C 34063.2 hPa WSW 20.9 km/h 20.9 km/h 56 % 0 mm
19:30 -7.8 °C -12.6 °C 34063.2 hPa WSW 26.9 km/h 26.9 km/h 57 % 0 mm
19:35 -7.9 °C -12.6 °C 34063.2 hPa South 16.6 km/h 16.6 km/h 58 % 0 mm
19:40 -8 °C -12.8 °C 34063.2 hPa WSW 26.9 km/h 26.9 km/h 57 % 0 mm
19:45 -8.1 °C -13 °C 34063.2 hPa SW 26.9 km/h 26.9 km/h 56 % 0 mm
19:50 -8.1 °C -13.2 °C 34063.2 hPa SW 27.7 km/h 27.7 km/h 55 % 0 mm
19:55 -8.2 °C -13.2 °C 34063.2 hPa WSW 32.8 km/h 32.8 km/h 55 % 0 mm
20:00 -8.2 °C -13.3 °C 34063.2 hPa SW 29.8 km/h 29.8 km/h 55 % 0 mm
20:05 -8.3 °C -13.5 °C 34063.2 hPa WSW 15 km/h 15 km/h 54 % 0 mm
20:10 -8.4 °C -13.4 °C 34029.3 hPa SSW 20.9 km/h 20.9 km/h 55 % 0 mm
20:15 -8.4 °C -13.5 °C 34029.3 hPa WSW 17.9 km/h 17.9 km/h 55 % 0 mm
20:20 -8.5 °C -13.4 °C 34029.3 hPa WSW 29.8 km/h 29.8 km/h 56 % 0 mm
20:25 -8.6 °C -13.5 °C 34063.2 hPa SSW 16.6 km/h 16.6 km/h 56 % 0 mm
20:30 -8.7 °C -13.4 °C 34063.2 hPa SW 20.9 km/h 20.9 km/h 57 % 0 mm
20:35 -8.7 °C -13.4 °C 34063.2 hPa SSW 15 km/h 15 km/h 57 % 0 mm
20:40 -8.8 °C -13.4 °C 34029.3 hPa WSW 15 km/h 15 km/h 58 % 0 mm
20:45 -8.8 °C -13.4 °C 34029.3 hPa SW 11.9 km/h 11.9 km/h 58 % 0 mm
20:50 -8.9 °C -13.3 °C 34029.3 hPa SW 17.9 km/h 17.9 km/h 59 % 0 mm
20:55 -9 °C -13.3 °C 34063.2 hPa SSW 11.9 km/h 11.9 km/h 60 % 0 mm
21:00 -9 °C -13.3 °C 34063.2 hPa SW 17.9 km/h 17.9 km/h 60 % 0 mm
21:05 -9 °C -13.3 °C 34063.2 hPa WSW 11.9 km/h 11.9 km/h 60 % 0 mm
21:10 -9.2 °C -13.2 °C 34029.3 hPa SW 9 km/h 9 km/h 62 % 0 mm
21:15 -9.2 °C -13.2 °C 34029.3 hPa SW 11.1 km/h 11.1 km/h 62 % 0 mm
21:20 -9.2 °C -13.2 °C 34029.3 hPa West 8 km/h 8 km/h 62 % 0 mm
21:25 -9.3 °C -13.3 °C 34029.3 hPa WSW 7.6 km/h 7.6 km/h 62 % 0 mm
21:30 -9.3 °C -13.3 °C 34029.3 hPa WSW 6.8 km/h 6.8 km/h 62 % 0 mm
21:40 -9.4 °C -13.3 °C 34063.2 hPa SW 9.8 km/h 9.8 km/h 63 % 0 mm
21:45 -9.6 °C -13.3 °C 34063.2 hPa WSW 9 km/h 9 km/h 64 % 0 mm
21:50 -9.6 °C -13.4 °C 34063.2 hPa SW 9 km/h 9 km/h 64 % 0 mm
21:55 -9.7 °C -13.4 °C 34063.2 hPa WSW 6.8 km/h 6.8 km/h 64 % 0 mm
22:00 -9.7 °C -13.4 °C 34063.2 hPa WSW 6 km/h 6 km/h 64 % 0 mm
22:05 -9.7 °C -13.3 °C 34063.2 hPa WSW 6 km/h 6 km/h 65 % 0 mm
22:10 -9.7 °C -13.3 °C 34063.2 hPa WNW 3.1 km/h   65 % 0 mm
22:15 -9.7 °C -13.3 °C 34063.2 hPa NE 6 km/h 6 km/h 65 % 0 mm
22:20 -9.7 °C -13.3 °C 34063.2 hPa ENE 6 km/h 6 km/h 65 % 0 mm
22:25 -9.7 °C -13.2 °C 34097 hPa Calm     66 % 0 mm
22:30 -11.8 °C -14.3 °C 34063.2 hPa SSW 2.6 km/h 5.1 km/h 74 % 0 mm
22:35 -9.8 °C -13.3 °C 34097 hPa Calm     66 % 0 mm
22:40 -9.8 °C -13.4 °C 34097 hPa WNW 4.2 km/h   65 % 0 mm
22:46 -9.9 °C -13.5 °C 34097 hPa WSW 6 km/h 6 km/h 65 % 0 mm
22:50 -11.6 °C -14.1 °C 34097 hPa West 5.1 km/h 5.1 km/h 74 % 0 mm
22:51 -9.9 °C -13.4 °C 34097 hPa WSW 6 km/h 6 km/h 66 % 0 mm
22:56 -9.9 °C -13.4 °C 34097 hPa WSW 6 km/h 6 km/h 66 % 0 mm
23:00 -11.6 °C -14 °C 34097 hPa WSW 5.1 km/h 5.1 km/h 75 % 0 mm
23:01 -10 °C -13.5 °C 34097 hPa WSW 6 km/h 6 km/h 66 % 0 mm
23:06 -10.1 °C -13.5 °C 34097 hPa WSW 3.7 km/h 3.7 km/h 66 % 0 mm
23:10 -11.7 °C -14 °C 34097 hPa Calm   5.1 km/h 76 % 0 mm
23:11 -10.1 °C -13.4 °C 34097 hPa WSW 3.1 km/h 3.1 km/h 67 % 0 mm
23:16 -10.2 °C -13.7 °C 34097 hPa WSW 3.7 km/h 5.6 km/h 66 % 0 mm
23:20 -11.7 °C -14.1 °C 34097 hPa WSW 2.6 km/h 5.1 km/h 75 % 0 mm
23:21 -10.2 °C -13.5 °C 34097 hPa SW 6.3 km/h 6.3 km/h 67 % 0 mm
23:26 -10.2 °C -13.4 °C 34097 hPa SSW 9 km/h 9 km/h 68 % 0 mm
23:30 -11.6 °C -13.9 °C 34097 hPa NW 5.1 km/h 5.1 km/h 76 % 0 mm
23:31 -10.3 °C -13.6 °C 34097 hPa SW 6 km/h 6 km/h 68 % 0 mm
23:36 -10.4 °C -13.5 °C 34097 hPa West 6.3 km/h 6.3 km/h 69 % 0 mm
23:40 -11.7 °C -14 °C 34097 hPa NNE 2.6 km/h 7.7 km/h 76 % 0 mm
23:46 -10.5 °C -13.6 °C 34097 hPa WSW 6 km/h 6 km/h 69 % 0 mm
23:50 -11.8 °C -14.1 °C 34097 hPa Calm   2.6 km/h 76 % 0 mm
23:51 -10.5 °C -13.6 °C 34097 hPa SW 6 km/h 6 km/h 69 % 0 mm
23:56 -10.5 °C -13.6 °C 34097 hPa SW 6 km/h 6 km/h 69 % 0 mm
Meteo Sesrovires
Elogis d' Weather Underground - 3.5 mb

Guio original per  Jim McMurry - jmcmurry@mwt.net Adaptat per a la plantilla per  Wim van der Kuil - Leuven-Template.eu

Trobareu la nostra informacio del temps tambe a:

Weather Underground

AWEKAS